createdAt,value
2023-04-09T00:00:14.801Z,0.00
2023-04-09T00:01:14.779Z,0.00
2023-04-09T00:02:14.827Z,0.00
2023-04-09T00:03:14.915Z,0.00
2023-04-09T00:04:14.799Z,0.00
2023-04-09T00:05:14.749Z,0.00
2023-04-09T00:06:14.745Z,0.00
2023-04-09T00:07:14.758Z,0.00
2023-04-09T00:08:14.725Z,0.00
2023-04-09T00:09:14.716Z,0.00
2023-04-09T00:10:14.693Z,0.00
2023-04-09T00:11:14.677Z,0.00
2023-04-09T00:12:14.672Z,0.00
2023-04-09T00:13:15.886Z,0.00
2023-04-09T00:14:14.668Z,0.00
2023-04-09T00:15:27.691Z,0.00
2023-04-09T00:16:14.691Z,0.00
2023-04-09T00:17:14.621Z,0.00
2023-04-09T00:18:14.616Z,0.00
2023-04-09T00:19:14.600Z,0.00
2023-04-09T00:20:14.630Z,0.00
2023-04-09T00:21:14.583Z,0.00
2023-04-09T00:22:14.564Z,0.00
2023-04-09T00:23:14.557Z,0.00
2023-04-09T00:24:14.548Z,0.00
2023-04-09T00:25:14.564Z,0.00
2023-04-09T00:26:14.538Z,0.00
2023-04-09T00:27:14.534Z,0.00
2023-04-09T00:28:14.498Z,0.00
2023-04-09T00:29:14.506Z,0.00
2023-04-09T00:30:14.491Z,0.00
2023-04-09T00:31:14.511Z,0.00
2023-04-09T00:32:14.478Z,0.00
2023-04-09T00:33:14.465Z,0.00
2023-04-09T00:34:14.440Z,0.00
2023-04-09T00:35:14.432Z,0.00
2023-04-09T00:36:14.467Z,0.00
2023-04-09T00:37:14.438Z,0.00
2023-04-09T00:38:14.405Z,0.00
2023-04-09T00:39:14.390Z,0.00
2023-04-09T00:40:14.390Z,0.00
2023-04-09T00:41:14.376Z,0.00
2023-04-09T00:42:14.363Z,0.00
2023-04-09T00:43:14.376Z,0.00
2023-04-09T00:44:14.337Z,0.00
2023-04-09T00:45:14.351Z,0.00
2023-04-09T00:46:14.377Z,0.00
2023-04-09T00:47:14.309Z,0.00
2023-04-09T00:48:14.290Z,0.00
2023-04-09T00:49:14.319Z,0.00
2023-04-09T00:50:14.274Z,0.00
2023-04-09T00:51:14.262Z,0.00
2023-04-09T00:52:14.259Z,0.00
2023-04-09T00:53:14.241Z,0.00
2023-04-09T00:54:14.235Z,0.00
2023-04-09T00:55:14.242Z,0.00
2023-04-09T00:56:14.216Z,0.00
2023-04-09T00:57:14.204Z,0.00
2023-04-09T00:58:14.199Z,0.00
2023-04-09T00:59:14.203Z,0.00
2023-04-09T01:00:14.162Z,0.00
2023-04-09T01:01:14.184Z,0.00
2023-04-09T01:02:14.238Z,0.00
2023-04-09T01:03:14.245Z,0.00
2023-04-09T01:04:14.149Z,0.00
2023-04-09T01:05:14.145Z,0.00
2023-04-09T01:06:14.112Z,0.00
2023-04-09T01:07:14.107Z,0.00
2023-04-09T01:08:14.106Z,0.00
2023-04-09T01:09:14.071Z,0.00
2023-04-09T01:10:14.077Z,0.00
2023-04-09T01:11:14.057Z,0.00
2023-04-09T01:12:14.062Z,0.00
2023-04-09T01:13:14.039Z,0.00
2023-04-09T01:14:14.040Z,0.00
2023-04-09T01:15:14.014Z,0.00
2023-04-09T01:16:14.022Z,0.00
2023-04-09T01:17:13.997Z,0.00
2023-04-09T01:18:13.984Z,0.00
2023-04-09T01:19:13.970Z,0.00
2023-04-09T01:20:13.977Z,0.00
2023-04-09T01:21:13.957Z,0.00
2023-04-09T01:22:13.941Z,0.00
2023-04-09T01:23:13.937Z,0.00
2023-04-09T01:24:13.938Z,0.00
2023-04-09T01:25:13.940Z,0.00
2023-04-09T01:26:13.912Z,0.00
2023-04-09T01:27:13.883Z,0.00
2023-04-09T01:28:13.879Z,0.00
2023-04-09T01:29:13.893Z,0.00
2023-04-09T01:49:10.504Z,0.00
2023-04-09T01:50:03.861Z,0.00
2023-04-09T01:51:03.842Z,0.00
2023-04-09T01:52:03.841Z,0.00
2023-04-09T01:53:03.816Z,0.00
2023-04-09T01:54:03.803Z,0.00
2023-04-09T01:55:03.819Z,0.00
2023-04-09T01:56:03.803Z,0.00
2023-04-09T01:57:03.770Z,0.00
2023-04-09T01:58:03.770Z,0.00
2023-04-09T01:59:03.749Z,0.00
2023-04-09T02:00:03.801Z,0.00
2023-04-09T02:01:03.774Z,0.00
2023-04-09T02:02:03.754Z,0.00
2023-04-09T02:03:03.855Z,0.00
2023-04-09T02:04:03.936Z,0.00
2023-04-09T02:05:03.701Z,0.00
2023-04-09T02:06:03.682Z,0.00
2023-04-09T02:07:03.707Z,0.00
2023-04-09T02:08:03.668Z,0.00
2023-04-09T02:09:03.650Z,0.00
2023-04-09T02:10:03.663Z,0.00
2023-04-09T02:11:03.621Z,0.00
2023-04-09T02:12:03.626Z,0.00
2023-04-09T02:13:03.628Z,0.00
2023-04-09T02:14:03.593Z,0.00
2023-04-09T02:15:03.578Z,0.00
2023-04-09T02:16:03.635Z,0.00
2023-04-09T02:17:03.559Z,0.00
2023-04-09T02:18:03.625Z,0.00
2023-04-09T02:19:03.569Z,0.00
2023-04-09T02:20:03.546Z,0.00
2023-04-09T02:21:03.525Z,0.00
2023-04-09T02:22:03.517Z,0.00
2023-04-09T02:23:03.491Z,0.00
2023-04-09T02:24:03.482Z,0.00
2023-04-09T02:25:03.488Z,0.00
2023-04-09T02:26:03.480Z,0.00
2023-04-09T02:27:03.449Z,0.00
2023-04-09T02:28:03.459Z,0.00
2023-04-09T02:29:03.461Z,0.00
2023-04-09T02:30:03.423Z,0.00
2023-04-09T02:31:03.453Z,0.00
2023-04-09T02:32:03.418Z,0.00
2023-04-09T02:33:03.448Z,0.00
2023-04-09T02:34:03.392Z,0.00
2023-04-09T02:35:03.379Z,0.00
2023-04-09T02:36:03.416Z,0.00
2023-04-09T02:37:03.357Z,0.00
2023-04-09T02:38:03.354Z,0.00
2023-04-09T02:39:04.176Z,0.00
2023-04-09T02:40:03.314Z,0.00
2023-04-09T02:41:03.307Z,0.00
2023-04-09T02:42:03.305Z,0.00
2023-04-09T02:43:03.282Z,0.00
2023-04-09T02:44:03.282Z,0.00
2023-04-09T02:45:03.258Z,0.00
2023-04-09T02:46:03.333Z,0.00
2023-04-09T02:47:03.272Z,0.00
2023-04-09T02:48:03.242Z,0.00
2023-04-09T02:49:03.226Z,0.00
2023-04-09T02:50:03.216Z,0.00
2023-04-09T02:51:03.213Z,0.00
2023-04-09T02:52:03.209Z,0.00
2023-04-09T02:53:03.173Z,0.00
2023-04-09T02:54:03.169Z,0.00
2023-04-09T02:55:03.159Z,0.00
2023-04-09T02:56:03.142Z,0.00
2023-04-09T02:57:03.185Z,0.00
2023-04-09T02:58:03.144Z,0.00
2023-04-09T02:59:03.143Z,0.00
2023-04-09T03:00:03.118Z,0.00
2023-04-09T03:01:03.094Z,0.00
2023-04-09T03:02:03.185Z,0.00
2023-04-09T03:03:03.192Z,0.00
2023-04-09T03:04:03.139Z,0.00
2023-04-09T03:05:03.044Z,0.00
2023-04-09T03:06:03.034Z,0.00
2023-04-09T03:07:03.024Z,0.00
2023-04-09T03:08:03.017Z,0.00
2023-04-09T03:09:02.996Z,0.00
2023-04-09T03:10:03.019Z,0.00
2023-04-09T03:11:03.001Z,0.00
2023-04-09T03:12:02.977Z,0.00
2023-04-09T03:13:02.973Z,0.00
2023-04-09T03:14:02.983Z,0.00
2023-04-09T03:15:02.939Z,0.00
2023-04-09T03:16:02.981Z,0.00
2023-04-09T03:17:02.949Z,0.00
2023-04-09T03:18:02.934Z,0.00
2023-04-09T03:19:02.901Z,0.00
2023-04-09T03:20:02.878Z,0.00
2023-04-09T03:21:02.874Z,0.00
2023-04-09T03:22:02.884Z,0.00
2023-04-09T03:23:02.849Z,0.00
2023-04-09T03:24:02.865Z,0.00
2023-04-09T03:25:02.833Z,0.00
2023-04-09T03:26:02.834Z,0.00
2023-04-09T03:27:02.820Z,0.00
2023-04-09T03:28:02.852Z,0.00
2023-04-09T03:29:02.797Z,0.00
2023-04-09T03:30:02.821Z,0.00
2023-04-09T03:31:02.787Z,0.00
2023-04-09T03:32:02.766Z,0.00
2023-04-09T03:33:02.754Z,0.00
2023-04-09T03:34:02.817Z,0.00
2023-04-09T03:35:02.779Z,0.00
2023-04-09T03:36:02.732Z,0.00
2023-04-09T03:37:02.717Z,0.00
2023-04-09T03:38:02.695Z,0.00
2023-04-09T03:39:02.682Z,0.00
2023-04-09T03:40:02.695Z,0.00
2023-04-09T03:41:02.653Z,0.00
2023-04-09T03:42:02.661Z,0.00
2023-04-09T03:43:02.640Z,0.00
2023-04-09T03:44:02.635Z,0.00
2023-04-09T03:45:02.631Z,0.00
2023-04-09T03:46:02.622Z,0.00
2023-04-09T03:47:02.591Z,0.00
2023-04-09T03:48:02.653Z,0.00
2023-04-09T03:49:02.584Z,0.00
2023-04-09T03:50:02.559Z,0.00
2023-04-09T03:51:02.559Z,0.00
2023-04-09T03:52:02.561Z,0.00
2023-04-09T03:53:02.535Z,0.00
2023-04-09T03:54:02.540Z,0.00
2023-04-09T03:55:02.521Z,0.00
2023-04-09T03:56:02.492Z,0.00
2023-04-09T03:57:02.481Z,0.00
2023-04-09T03:58:02.482Z,0.00
2023-04-09T03:59:02.502Z,0.00
2023-04-09T04:00:02.451Z,0.00
2023-04-09T04:01:02.450Z,0.00
2023-04-09T04:02:02.503Z,0.00
2023-04-09T04:03:02.687Z,0.00
2023-04-09T04:04:02.480Z,0.00
2023-04-09T04:05:02.408Z,0.00
2023-04-09T04:06:02.391Z,0.00
2023-04-09T04:07:02.398Z,0.00
2023-04-09T04:08:02.364Z,0.00
2023-04-09T04:09:02.357Z,0.00
2023-04-09T04:10:02.358Z,0.00
2023-04-09T04:11:02.353Z,0.00
2023-04-09T04:12:02.424Z,0.00
2023-04-09T04:13:02.420Z,0.00
2023-04-09T04:14:02.302Z,0.00
2023-04-09T04:15:02.287Z,0.00
2023-04-09T04:16:02.322Z,0.00
2023-04-09T04:17:02.269Z,0.00
2023-04-09T04:18:02.256Z,0.00
2023-04-09T04:19:02.192Z,1.00
2023-04-09T04:20:02.296Z,0.00
2023-04-09T04:21:02.232Z,1.00
2023-04-09T04:22:02.163Z,1.00
2023-04-09T04:23:02.143Z,1.00
2023-04-09T04:24:02.141Z,2.00
2023-04-09T04:25:02.130Z,2.00
2023-04-09T04:26:02.153Z,1.00
2023-04-09T04:27:02.105Z,1.00
2023-04-09T04:28:02.158Z,0.00
2023-04-09T04:29:02.096Z,2.00
2023-04-09T04:30:02.179Z,1.00
2023-04-09T04:31:02.055Z,1.00
2023-04-09T04:32:02.124Z,3.00
2023-04-09T04:33:02.068Z,2.00
2023-04-09T04:34:02.029Z,5.00
2023-04-09T04:35:02.037Z,5.00
2023-04-09T04:36:02.029Z,3.00
2023-04-09T04:37:02.002Z,4.00
2023-04-09T04:38:02.001Z,5.00
2023-04-09T04:39:01.992Z,8.00
2023-04-09T04:40:01.960Z,6.00
2023-04-09T04:41:01.969Z,8.00
2023-04-09T04:42:01.932Z,11.00
2023-04-09T04:43:01.949Z,12.00
2023-04-09T04:44:01.920Z,10.00
2023-04-09T04:45:01.917Z,12.00
2023-04-09T04:46:01.937Z,15.00
2023-04-09T04:47:01.924Z,18.00
2023-04-09T04:48:01.905Z,19.00
2023-04-09T04:49:01.882Z,16.00
2023-04-09T04:50:01.856Z,24.00
2023-04-09T04:51:01.844Z,24.00
2023-04-09T04:52:01.831Z,28.00
2023-04-09T04:53:01.828Z,28.00
2023-04-09T04:54:01.828Z,31.00
2023-04-09T04:55:01.804Z,31.00
2023-04-09T04:56:01.796Z,33.00
2023-04-09T04:57:01.774Z,39.00
2023-04-09T04:58:01.764Z,34.00
2023-04-09T04:59:01.760Z,45.00
2023-04-09T05:00:01.838Z,47.00
2023-04-09T05:01:01.792Z,46.00
2023-04-09T05:02:01.789Z,49.00
2023-04-09T05:03:01.890Z,54.00
2023-04-09T05:04:01.744Z,56.00
2023-04-09T05:05:01.697Z,66.00
2023-04-09T05:06:01.701Z,46.00
2023-04-09T05:07:01.667Z,72.00
2023-04-09T05:08:01.663Z,71.00
2023-04-09T05:09:01.640Z,77.00
2023-04-09T05:10:01.633Z,70.00
2023-04-09T05:11:01.662Z,79.00
2023-04-09T05:12:01.633Z,78.00
2023-04-09T05:13:01.619Z,101.00
2023-04-09T05:14:01.600Z,63.00
2023-04-09T05:15:01.582Z,124.00
2023-04-09T05:16:01.589Z,53.00
2023-04-09T05:17:01.644Z,113.00
2023-04-09T05:18:01.601Z,117.00
2023-04-09T05:19:01.532Z,101.00
2023-04-09T05:20:01.564Z,99.00
2023-04-09T05:21:01.605Z,103.00
2023-04-09T05:22:01.527Z,124.00
2023-04-09T05:23:01.507Z,145.00
2023-04-09T05:24:01.487Z,103.00
2023-04-09T05:25:01.474Z,122.00
2023-04-09T05:26:01.470Z,146.00
2023-04-09T05:27:01.453Z,152.00
2023-04-09T05:28:01.466Z,113.00
2023-04-09T05:29:01.435Z,158.00
2023-04-09T05:30:01.435Z,164.00
2023-04-09T05:31:01.416Z,162.00
2023-04-09T05:32:01.414Z,183.00
2023-04-09T05:33:01.390Z,168.00
2023-04-09T05:34:01.387Z,120.00
2023-04-09T05:35:01.380Z,239.00
2023-04-09T05:36:01.446Z,136.00
2023-04-09T05:37:01.367Z,263.00
2023-04-09T05:38:01.348Z,169.00
2023-04-09T05:39:01.323Z,216.00
2023-04-09T05:40:01.305Z,134.00
2023-04-09T05:41:01.308Z,304.00
2023-04-09T05:42:01.463Z,225.00
2023-04-09T05:43:01.284Z,257.00
2023-04-09T05:44:01.273Z,252.00
2023-04-09T05:45:01.298Z,312.00
2023-04-09T05:46:01.284Z,252.00
2023-04-09T05:47:01.250Z,238.00
2023-04-09T05:48:01.282Z,284.00
2023-04-09T05:49:01.214Z,292.00
2023-04-09T05:50:01.264Z,212.00
2023-04-09T05:51:01.283Z,309.00
2023-04-09T05:52:01.184Z,247.00
2023-04-09T05:53:01.182Z,304.00
2023-04-09T05:54:01.188Z,291.00
2023-04-09T05:55:01.156Z,374.00
2023-04-09T05:56:01.150Z,234.00
2023-04-09T05:57:01.127Z,401.00
2023-04-09T05:58:01.125Z,340.00
2023-04-09T05:59:01.129Z,313.00
2023-04-09T06:00:01.123Z,367.00
2023-04-09T06:01:01.148Z,421.00
2023-04-09T06:02:01.099Z,326.00
2023-04-09T06:03:01.114Z,283.00
2023-04-09T06:04:01.457Z,455.00
2023-04-09T06:05:01.070Z,237.00
2023-04-09T06:06:01.040Z,547.00
2023-04-09T06:07:01.040Z,265.00
2023-04-09T06:08:01.017Z,355.00
2023-04-09T06:09:01.004Z,456.00
2023-04-09T06:10:00.989Z,467.00
2023-04-09T06:11:01.004Z,368.00
2023-04-09T06:12:00.977Z,352.00
2023-04-09T06:13:00.974Z,552.00
2023-04-09T06:14:00.962Z,361.00
2023-04-09T06:15:00.950Z,435.00
2023-04-09T06:16:00.955Z,339.00
2023-04-09T06:17:00.933Z,405.00
2023-04-09T06:18:00.946Z,444.00
2023-04-09T06:19:00.917Z,464.00
2023-04-09T06:20:00.901Z,386.00
2023-04-09T06:21:00.891Z,539.00
2023-04-09T06:22:00.896Z,381.00
2023-04-09T06:23:00.890Z,479.00
2023-04-09T06:24:00.843Z,360.00
2023-04-09T06:25:00.841Z,595.00
2023-04-09T06:26:00.838Z,475.00
2023-04-09T06:27:00.811Z,445.00
2023-04-09T06:28:00.801Z,456.00
2023-04-09T06:29:00.834Z,492.00
2023-04-09T06:30:00.776Z,592.00
2023-04-09T06:31:00.794Z,598.00
2023-04-09T06:32:00.769Z,291.00
2023-04-09T06:33:00.769Z,732.00
2023-04-09T06:34:00.747Z,288.00
2023-04-09T06:35:00.754Z,883.00
2023-04-09T06:36:00.781Z,528.00
2023-04-09T06:37:00.733Z,454.00
2023-04-09T06:38:00.721Z,789.00
2023-04-09T06:39:00.685Z,457.00
2023-04-09T06:40:01.608Z,267.00
2023-04-09T06:41:00.669Z,768.00
2023-04-09T06:42:00.667Z,702.00
2023-04-09T06:43:00.640Z,698.00
2023-04-09T06:44:00.637Z,522.00
2023-04-09T06:45:00.642Z,616.00
2023-04-09T06:46:00.688Z,699.00
2023-04-09T06:47:00.619Z,517.00
2023-04-09T06:48:00.722Z,693.00
2023-04-09T06:49:00.651Z,439.00
2023-04-09T06:50:00.568Z,719.00
2023-04-09T06:51:00.559Z,422.00
2023-04-09T06:52:00.563Z,414.00
2023-04-09T06:53:00.531Z,716.00
2023-04-09T06:54:00.699Z,645.00
2023-04-09T06:55:00.564Z,519.00
2023-04-09T06:56:00.515Z,647.00
2023-04-09T06:57:00.504Z,617.00
2023-04-09T06:58:00.486Z,440.00
2023-04-09T06:59:00.468Z,500.00
2023-04-09T07:00:00.468Z,639.00
2023-04-09T07:01:00.491Z,598.00
2023-04-09T07:02:00.757Z,567.00
2023-04-09T07:03:00.727Z,528.00
2023-04-09T07:04:00.478Z,857.00
2023-04-09T07:05:00.409Z,438.00
2023-04-09T07:06:00.407Z,469.00
2023-04-09T07:07:00.410Z,765.00
2023-04-09T07:08:00.374Z,599.00
2023-04-09T07:09:00.378Z,594.00
2023-04-09T07:10:00.351Z,884.00
2023-04-09T07:11:00.344Z,569.00
2023-04-09T07:12:00.336Z,786.00
2023-04-09T07:13:00.330Z,1018.00
2023-04-09T07:14:00.319Z,829.00
2023-04-09T07:15:00.320Z,715.00
2023-04-09T07:16:00.324Z,888.00
2023-04-09T07:17:00.295Z,608.00
2023-04-09T07:18:00.312Z,547.00
2023-04-09T07:19:00.262Z,904.00
2023-04-09T07:20:00.338Z,768.00
2023-04-09T07:21:00.271Z,745.00
2023-04-09T07:22:00.224Z,956.00
2023-04-09T07:23:00.215Z,863.00
2023-04-09T07:24:00.207Z,945.00
2023-04-09T07:25:00.191Z,915.00
2023-04-09T07:26:00.186Z,1128.00
2023-04-09T07:27:00.197Z,626.00
2023-04-09T07:28:00.188Z,707.00
2023-04-09T07:29:00.162Z,822.00
2023-04-09T07:30:00.156Z,1000.00
2023-04-09T07:31:00.160Z,850.00
2023-04-09T07:32:00.194Z,984.00
2023-04-09T07:33:00.488Z,726.00
2023-04-09T07:34:00.118Z,808.00
2023-04-09T07:35:00.099Z,887.00
2023-04-09T07:36:00.108Z,838.00
2023-04-09T07:37:00.082Z,868.00
2023-04-09T07:38:00.069Z,989.00
2023-04-09T07:39:00.049Z,753.00
2023-04-09T07:40:00.043Z,688.00
2023-04-09T07:41:00.028Z,711.00
2023-04-09T07:42:00.036Z,823.00
2023-04-09T07:43:00.022Z,765.00
2023-04-09T07:43:59.992Z,961.00
2023-04-09T07:45:00.025Z,444.00
2023-04-09T07:46:00.369Z,1097.00
2023-04-09T07:47:00.007Z,909.00
2023-04-09T07:48:00.015Z,740.00
2023-04-09T07:48:59.952Z,766.00
2023-04-09T07:49:59.943Z,639.00
2023-04-09T07:50:59.944Z,870.00
2023-04-09T07:51:59.918Z,722.00
2023-04-09T07:52:59.921Z,715.00
2023-04-09T07:53:59.895Z,681.00
2023-04-09T07:54:59.883Z,670.00
2023-04-09T07:55:59.879Z,665.00
2023-04-09T07:56:59.869Z,655.00
2023-04-09T07:57:59.854Z,639.00
2023-04-09T07:58:59.858Z,653.00
2023-04-09T07:59:59.837Z,635.00
2023-04-09T08:00:59.821Z,639.00
2023-04-09T08:01:59.950Z,619.00
2023-04-09T08:02:59.944Z,620.00
2023-04-09T08:04:00.052Z,626.00
2023-04-09T08:04:59.854Z,611.00
2023-04-09T08:05:59.779Z,607.00
2023-04-09T08:06:59.768Z,609.00
2023-04-09T08:07:59.746Z,595.00
2023-04-09T08:08:59.745Z,589.00
2023-04-09T08:09:59.745Z,589.00
2023-04-09T08:10:59.717Z,585.00
2023-04-09T08:11:59.721Z,589.00
2023-04-09T08:12:59.720Z,577.00
2023-04-09T08:13:59.689Z,566.00
2023-04-09T08:14:59.695Z,584.00
2023-04-09T08:15:59.688Z,566.00
2023-04-09T08:16:59.650Z,563.00
2023-04-09T08:17:59.718Z,576.00
2023-04-09T08:18:59.631Z,578.00
2023-04-09T08:19:59.647Z,564.00
2023-04-09T08:20:59.619Z,552.00
2023-04-09T08:21:59.598Z,549.00
2023-04-09T08:22:59.617Z,552.00
2023-04-09T08:23:59.591Z,543.00
2023-04-09T08:25:01.414Z,553.00
2023-04-09T08:25:59.582Z,553.00
2023-04-09T08:26:59.558Z,524.00
2023-04-09T08:27:59.567Z,533.00
2023-04-09T08:28:59.582Z,537.00
2023-04-09T08:29:59.550Z,533.00
2023-04-09T08:30:59.504Z,528.00
2023-04-09T08:31:59.545Z,526.00
2023-04-09T08:32:59.522Z,513.00
2023-04-09T08:33:59.494Z,506.00
2023-04-09T08:34:59.472Z,513.00
2023-04-09T08:36:00.845Z,507.00
2023-04-09T08:36:59.446Z,505.00
2023-04-09T08:37:59.460Z,480.00
2023-04-09T08:38:59.437Z,517.00
2023-04-09T08:39:59.416Z,492.00
2023-04-09T08:40:59.400Z,466.00
2023-04-09T08:41:59.404Z,485.00
2023-04-09T08:42:59.380Z,524.00
2023-04-09T08:43:59.938Z,497.00
2023-04-09T08:44:59.378Z,491.00
2023-04-09T08:45:59.398Z,482.00
2023-04-09T08:46:59.768Z,466.00
2023-04-09T08:47:59.434Z,536.00
2023-04-09T08:48:59.316Z,481.00
2023-04-09T08:49:59.330Z,479.00
2023-04-09T08:50:59.312Z,479.00
2023-04-09T08:51:59.291Z,459.00
2023-04-09T08:52:59.289Z,453.00
2023-04-09T08:54:00.779Z,437.00
2023-04-09T08:54:59.370Z,467.00
2023-04-09T08:55:59.246Z,506.00
2023-04-09T08:56:59.242Z,448.00
2023-04-09T08:57:59.233Z,443.00
2023-04-09T08:58:59.245Z,366.00
2023-04-09T08:59:59.230Z,464.00
2023-04-09T09:00:59.260Z,432.00
2023-04-09T09:01:59.364Z,570.00
2023-04-09T09:02:59.303Z,552.00
2023-04-09T09:03:59.199Z,432.00
2023-04-09T09:04:59.164Z,393.00
2023-04-09T09:05:59.163Z,390.00
2023-04-09T09:06:59.151Z,389.00
2023-04-09T09:07:59.119Z,357.00
2023-04-09T09:08:59.121Z,385.00
2023-04-09T09:09:59.102Z,397.00
2023-04-09T09:10:59.091Z,481.00
2023-04-09T09:11:59.092Z,406.00
2023-04-09T09:12:59.087Z,424.00
2023-04-09T09:13:59.075Z,472.00
2023-04-09T09:14:59.076Z,513.00
2023-04-09T09:15:59.058Z,586.00
2023-04-09T09:16:59.063Z,480.00
2023-04-09T09:17:59.087Z,447.00
2023-04-09T09:18:59.444Z,416.00
2023-04-09T09:19:58.995Z,293.00
2023-04-09T09:20:58.998Z,334.00
2023-04-09T09:21:58.988Z,443.00
2023-04-09T09:22:58.961Z,491.00
2023-04-09T09:23:58.966Z,423.00
2023-04-09T09:24:58.982Z,386.00
2023-04-09T09:25:58.935Z,396.00
2023-04-09T09:26:58.952Z,391.00
2023-04-09T09:27:58.911Z,424.00
2023-04-09T09:28:58.911Z,475.00
2023-04-09T09:29:58.897Z,433.00
2023-04-09T09:30:58.913Z,453.00
2023-04-09T09:31:58.871Z,476.00
2023-04-09T09:32:58.978Z,565.00
2023-04-09T09:33:58.841Z,577.00
2023-04-09T09:34:58.844Z,539.00
2023-04-09T09:35:58.900Z,445.00
2023-04-09T09:36:58.809Z,397.00
2023-04-09T09:37:58.807Z,356.00
2023-04-09T09:38:58.824Z,339.00
2023-04-09T09:39:58.782Z,330.00
2023-04-09T09:40:58.778Z,337.00
2023-04-09T09:41:58.780Z,352.00
2023-04-09T09:42:58.752Z,346.00
2023-04-09T09:43:58.766Z,340.00
2023-04-09T09:44:58.740Z,350.00
2023-04-09T09:45:58.764Z,335.00
2023-04-09T09:46:58.753Z,325.00
2023-04-09T09:47:58.757Z,316.00
2023-04-09T09:48:58.695Z,491.00
2023-04-09T09:49:58.706Z,640.00
2023-04-09T09:50:58.677Z,295.00
2023-04-09T09:51:58.670Z,442.00
2023-04-09T09:52:58.647Z,335.00
2023-04-09T09:53:58.639Z,265.00
2023-04-09T09:54:58.635Z,315.00
2023-04-09T09:55:58.633Z,318.00
2023-04-09T09:56:58.609Z,311.00
2023-04-09T09:57:58.605Z,331.00
2023-04-09T09:58:58.589Z,374.00
2023-04-09T09:59:58.596Z,349.00
2023-04-09T10:00:58.637Z,320.00
2023-04-09T10:01:58.748Z,314.00
2023-04-09T10:02:58.635Z,315.00
2023-04-09T10:03:58.549Z,311.00
2023-04-09T10:04:58.526Z,314.00
2023-04-09T10:05:58.524Z,308.00
2023-04-09T10:06:58.511Z,309.00
2023-04-09T10:07:58.491Z,302.00
2023-04-09T10:08:58.482Z,289.00
2023-04-09T10:09:58.475Z,295.00
2023-04-09T10:10:58.476Z,287.00
2023-04-09T10:11:58.450Z,286.00
2023-04-09T10:12:58.464Z,287.00
2023-04-09T10:13:58.425Z,310.00
2023-04-09T10:14:58.421Z,304.00
2023-04-09T10:15:58.428Z,295.00
2023-04-09T10:16:58.398Z,304.00
2023-04-09T10:17:58.451Z,306.00
2023-04-09T10:18:58.417Z,309.00
2023-04-09T10:19:58.360Z,315.00
2023-04-09T10:20:58.347Z,304.00
2023-04-09T10:21:58.360Z,298.00
2023-04-09T10:22:58.346Z,307.00
2023-04-09T10:23:58.322Z,301.00
2023-04-09T10:24:58.331Z,295.00
2023-04-09T10:25:58.302Z,293.00
2023-04-09T10:26:58.290Z,282.00
2023-04-09T10:27:58.300Z,288.00
2023-04-09T10:28:58.270Z,296.00
2023-04-09T10:29:58.257Z,293.00
2023-04-09T10:30:58.293Z,330.00
2023-04-09T10:31:58.234Z,331.00
2023-04-09T10:32:58.245Z,289.00
2023-04-09T10:33:58.227Z,297.00
2023-04-09T10:34:58.212Z,614.00
2023-04-09T10:35:58.197Z,599.00
2023-04-09T10:36:58.189Z,596.00
2023-04-09T10:37:58.176Z,265.00
2023-04-09T10:38:58.181Z,418.00
2023-04-09T10:39:58.170Z,652.00
2023-04-09T10:40:58.168Z,333.00
2023-04-09T10:41:58.137Z,725.00
2023-04-09T10:42:58.134Z,397.00
2023-04-09T10:43:58.121Z,581.00
2023-04-09T10:44:58.098Z,480.00
2023-04-09T10:45:58.092Z,722.00
2023-04-09T10:46:58.124Z,752.00
2023-04-09T10:47:58.148Z,783.00
2023-04-09T10:48:58.061Z,829.00
2023-04-09T10:49:58.083Z,924.00
2023-04-09T10:50:58.039Z,963.00
2023-04-09T10:51:58.024Z,898.00
2023-04-09T10:52:58.025Z,922.00
2023-04-09T10:53:58.029Z,1019.00
2023-04-09T10:54:57.991Z,1181.00
2023-04-09T10:55:58.043Z,1185.00
2023-04-09T10:56:57.972Z,1116.00
2023-04-09T10:57:57.960Z,1239.00
2023-04-09T10:58:57.958Z,1258.00
2023-04-09T10:59:57.954Z,1196.00
2023-04-09T11:00:57.934Z,1178.00
2023-04-09T11:01:58.011Z,1254.00
2023-04-09T11:02:58.010Z,1269.00
2023-04-09T11:03:57.941Z,1328.00
2023-04-09T11:04:57.956Z,1390.00
2023-04-09T11:05:57.887Z,1250.00
2023-04-09T11:06:57.865Z,1209.00
2023-04-09T11:07:57.864Z,1268.00
2023-04-09T11:08:57.846Z,1365.00
2023-04-09T11:09:57.853Z,1424.00
2023-04-09T11:10:57.842Z,1378.00
2023-04-09T11:11:57.818Z,1238.00
2023-04-09T11:12:57.807Z,1165.00
2023-04-09T11:13:57.792Z,1304.00
2023-04-09T11:14:57.783Z,1305.00
2023-04-09T11:15:57.817Z,1205.00
2023-04-09T11:16:57.783Z,1168.00
2023-04-09T11:17:57.854Z,1166.00
2023-04-09T11:18:57.734Z,1188.00
2023-04-09T11:19:57.769Z,1187.00
2023-04-09T11:20:57.728Z,1148.00
2023-04-09T11:21:57.706Z,1131.00
2023-04-09T11:22:57.716Z,1205.00
2023-04-09T11:23:57.694Z,1227.00
2023-04-09T11:24:57.676Z,1199.00
2023-04-09T11:25:57.666Z,1140.00
2023-04-09T11:26:57.650Z,1130.00
2023-04-09T11:27:57.655Z,1122.00
2023-04-09T11:28:57.644Z,1099.00
2023-04-09T11:29:57.617Z,1095.00
2023-04-09T11:30:57.638Z,1109.00
2023-04-09T11:31:57.676Z,1160.00
2023-04-09T11:32:57.736Z,1087.00
2023-04-09T11:33:57.600Z,1074.00
2023-04-09T11:34:57.564Z,1157.00
2023-04-09T11:35:57.590Z,1191.00
2023-04-09T11:36:57.553Z,1083.00
2023-04-09T11:37:57.547Z,1082.00
2023-04-09T11:38:57.546Z,1169.00
2023-04-09T11:39:57.949Z,1229.00
2023-04-09T11:40:57.508Z,1228.00
2023-04-09T11:41:57.536Z,1246.00
2023-04-09T11:42:57.478Z,1209.00
2023-04-09T11:43:57.478Z,1172.00
2023-04-09T11:44:57.458Z,1297.00
2023-04-09T11:45:57.795Z,1260.00
2023-04-09T11:46:57.473Z,1278.00
2023-04-09T11:47:57.485Z,1261.00
2023-04-09T11:48:57.421Z,1295.00
2023-04-09T11:49:57.409Z,1239.00
2023-04-09T11:50:57.428Z,1184.00
2023-04-09T11:51:57.375Z,1209.00
2023-04-09T11:52:57.378Z,1248.00
2023-04-09T11:53:57.362Z,1300.00
2023-04-09T11:54:57.355Z,1298.00
2023-04-09T11:55:57.360Z,1215.00
2023-04-09T11:56:57.340Z,1134.00
2023-04-09T11:57:57.320Z,1239.00
2023-04-09T11:58:57.340Z,1201.00
2023-04-09T11:59:57.301Z,1167.00
2023-04-09T12:00:57.302Z,1165.00
2023-04-09T12:01:57.314Z,1176.00
2023-04-09T12:02:57.403Z,1197.00
2023-04-09T12:03:57.461Z,1301.00
2023-04-09T12:04:57.303Z,1395.00
2023-04-09T12:05:57.232Z,1319.00
2023-04-09T12:06:57.244Z,1269.00
2023-04-09T12:07:57.225Z,1404.00
2023-04-09T12:08:57.208Z,1401.00
2023-04-09T12:09:57.196Z,1331.00
2023-04-09T12:10:57.214Z,1300.00
2023-04-09T12:11:57.174Z,1445.00
2023-04-09T12:12:57.179Z,1435.00
2023-04-09T12:13:57.156Z,1301.00
2023-04-09T12:14:57.139Z,1224.00
2023-04-09T12:15:59.099Z,1148.00
2023-04-09T12:16:57.224Z,1366.00
2023-04-09T12:17:57.197Z,1304.00
2023-04-09T12:18:57.114Z,1233.00
2023-04-09T12:19:57.101Z,1347.00
2023-04-09T12:20:57.088Z,1452.00
2023-04-09T12:21:57.070Z,1311.00
2023-04-09T12:22:57.064Z,1216.00
2023-04-09T12:23:57.036Z,1267.00
2023-04-09T12:24:57.054Z,1323.00
2023-04-09T12:25:57.030Z,1381.00
2023-04-09T12:26:57.027Z,1167.00
2023-04-09T12:27:57.003Z,875.00
2023-04-09T12:28:57.022Z,1332.00
2023-04-09T12:29:56.980Z,1350.00
2023-04-09T12:30:56.987Z,1385.00
2023-04-09T12:31:56.981Z,1451.00
2023-04-09T12:32:57.065Z,1517.00
2023-04-09T12:33:56.945Z,1394.00
2023-04-09T12:34:56.935Z,1045.00
2023-04-09T12:35:56.939Z,987.00
2023-04-09T12:36:56.926Z,1020.00
2023-04-09T12:37:56.905Z,1271.00
2023-04-09T12:38:56.893Z,1436.00
2023-04-09T12:39:56.867Z,931.00
2023-04-09T12:40:56.883Z,1122.00
2023-04-09T12:41:56.847Z,1241.00
2023-04-09T12:42:56.858Z,1114.00
2023-04-09T12:43:56.832Z,1430.00
2023-04-09T12:44:56.817Z,1224.00
2023-04-09T12:45:56.868Z,1135.00
2023-04-09T12:46:56.828Z,1091.00
2023-04-09T12:47:56.805Z,1046.00
2023-04-09T12:48:56.792Z,1023.00
2023-04-09T12:49:56.772Z,963.00
2023-04-09T12:50:56.763Z,787.00
2023-04-09T12:51:56.735Z,951.00
2023-04-09T12:52:56.748Z,951.00
2023-04-09T12:53:56.737Z,744.00
2023-04-09T12:54:56.707Z,808.00
2023-04-09T12:55:56.703Z,778.00
2023-04-09T12:56:56.687Z,789.00
2023-04-09T12:57:56.699Z,661.00
2023-04-09T12:58:56.672Z,858.00
2023-04-09T12:59:56.665Z,796.00
2023-04-09T13:00:56.664Z,829.00